createdAt,value
2022-11-25T00:00:35.572Z,3.69
2022-11-25T00:05:38.730Z,3.74
2022-11-25T00:10:42.937Z,3.78
2022-11-25T00:15:45.848Z,3.90
2022-11-25T00:20:48.790Z,3.90
2022-11-25T00:25:53.002Z,4.10
2022-11-25T00:30:55.930Z,4.07
2022-11-25T00:36:01.815Z,3.88
2022-11-25T00:41:23.444Z,3.99
2022-11-25T00:46:26.429Z,3.98
2022-11-25T00:51:29.342Z,4.02
2022-11-25T00:56:33.969Z,3.96
2022-11-25T01:01:37.845Z,3.99
2022-11-25T01:06:40.953Z,3.82
2022-11-25T01:11:45.220Z,3.85
2022-11-25T01:16:48.233Z,3.71
2022-11-25T01:21:51.340Z,3.57
2022-11-25T01:26:56.531Z,3.48
2022-11-25T01:31:59.461Z,3.37
2022-11-25T01:37:02.610Z,3.52
2022-11-25T01:42:06.921Z,3.59
2022-11-25T01:47:16.899Z,3.75
2022-11-25T01:52:25.932Z,3.82
2022-11-25T01:57:36.077Z,3.90
2022-11-25T02:02:39.272Z,3.99
2022-11-25T02:07:45.242Z,4.10
2022-11-25T02:12:50.211Z,4.04
2022-11-25T02:17:53.671Z,4.00
2022-11-25T02:23:04.268Z,4.03
2022-11-25T02:28:11.881Z,4.04
2022-11-25T02:33:15.479Z,4.03
2022-11-25T02:38:22.167Z,4.11
2022-11-25T02:43:27.289Z,4.11
2022-11-25T02:49:06.935Z,3.98
2022-11-25T02:53:57.191Z,4.08
2022-11-25T02:59:03.484Z,3.90
2022-11-25T03:04:07.283Z,4.00
2022-11-25T03:09:10.239Z,3.93
2022-11-25T03:14:16.046Z,4.01
2022-11-25T03:19:19.460Z,3.93
2022-11-25T03:24:22.355Z,3.96
2022-11-25T03:29:27.466Z,4.03
2022-11-25T03:34:30.433Z,4.01
2022-11-25T03:39:34.553Z,3.98
2022-11-25T03:44:39.143Z,3.97
2022-11-25T03:49:42.136Z,3.99
2022-11-25T03:54:46.412Z,3.81
2022-11-25T03:59:56.466Z,3.93
2022-11-25T04:04:59.619Z,3.89
2022-11-25T04:10:03.567Z,3.85
2022-11-25T04:15:11.106Z,3.85
2022-11-25T04:20:16.417Z,3.82
2022-11-25T04:25:23.981Z,3.76
2022-11-25T04:30:29.489Z,3.77
2022-11-25T04:35:32.569Z,3.87
2022-11-25T04:40:35.681Z,3.86
2022-11-25T04:46:13.052Z,3.85
2022-11-25T04:51:15.444Z,3.74
2022-11-25T04:56:20.645Z,3.65
2022-11-25T05:01:27.581Z,3.60
2022-11-25T05:06:38.553Z,3.41
2022-11-25T05:11:42.563Z,3.35
2022-11-25T05:16:47.103Z,3.07
2022-11-25T05:21:50.446Z,3.06
2022-11-25T05:26:54.519Z,2.97
2022-11-25T05:31:59.088Z,2.73
2022-11-25T05:37:02.152Z,2.73
2022-11-25T05:42:06.258Z,2.75
2022-11-25T05:47:10.673Z,2.62
2022-11-25T05:52:15.466Z,2.26
2022-11-25T05:57:26.870Z,2.34
2022-11-25T06:02:35.244Z,2.31
2022-11-25T06:07:38.296Z,2.21
2022-11-25T06:12:41.430Z,2.14
2022-11-25T06:17:46.255Z,2.06
2022-11-25T06:22:55.381Z,1.97
2022-11-25T06:28:12.966Z,1.83
2022-11-25T06:33:20.508Z,1.80
2022-11-25T06:38:24.833Z,1.78
2022-11-25T06:43:27.761Z,1.76
2022-11-25T06:48:32.180Z,1.32
2022-11-25T06:53:36.041Z,1.49
2022-11-25T06:58:40.317Z,1.39
2022-11-25T07:03:45.783Z,1.15
2022-11-25T07:08:49.596Z,1.18
2022-11-25T07:13:54.144Z,1.14
2022-11-25T07:19:00.123Z,1.10
2022-11-25T07:24:05.530Z,0.67
2022-11-25T07:29:36.425Z,0.83
2022-11-25T07:34:36.207Z,0.74
2022-11-25T07:39:39.539Z,0.74
2022-11-25T07:44:42.654Z,1.06
2022-11-25T07:50:08.938Z,0.99
2022-11-25T07:55:11.831Z,1.21
2022-11-25T08:00:16.166Z,1.39
2022-11-25T08:05:20.479Z,1.10
2022-11-25T08:10:23.437Z,1.27
2022-11-25T08:15:26.384Z,1.41
2022-11-25T08:20:31.486Z,1.45
2022-11-25T08:25:34.660Z,1.71
2022-11-25T08:30:37.722Z,1.85
2022-11-25T08:35:42.101Z,1.99
2022-11-25T08:40:46.715Z,1.96
2022-11-25T08:45:49.847Z,1.96
2022-11-25T08:50:56.126Z,2.45
2022-11-25T08:55:59.172Z,2.82
2022-11-25T09:01:02.839Z,3.24
2022-11-25T09:06:08.383Z,2.92
2022-11-25T09:11:12.078Z,3.02
2022-11-25T09:16:15.280Z,2.92
2022-11-25T09:21:19.851Z,3.32
2022-11-25T09:26:26.036Z,3.61
2022-11-25T09:31:29.370Z,3.62
2022-11-25T09:36:33.727Z,3.95
2022-11-25T09:42:23.020Z,4.28
2022-11-25T09:47:45.226Z,4.53
2022-11-25T09:53:04.009Z,4.78
2022-11-25T09:58:17.602Z,4.75
2022-11-25T10:03:30.402Z,5.02
2022-11-25T10:08:39.172Z,5.07
2022-11-25T10:13:49.266Z,5.09
2022-11-25T10:18:59.034Z,5.14
2022-11-25T10:24:04.944Z,5.45
2022-11-25T10:29:24.096Z,5.66
2022-11-25T10:34:35.174Z,6.04
2022-11-25T10:39:39.990Z,5.67
2022-11-25T10:44:43.407Z,6.09
2022-11-25T10:50:00.781Z,6.12
2022-11-25T10:55:12.985Z,6.47
2022-11-25T11:00:31.633Z,6.58
2022-11-25T11:05:34.796Z,6.66
2022-11-25T11:10:39.840Z,6.71
2022-11-25T11:15:48.039Z,7.05
2022-11-25T11:20:54.101Z,7.14
2022-11-25T11:26:04.361Z,7.13
2022-11-25T11:31:18.174Z,7.32
2022-11-25T11:36:35.618Z,7.43
2022-11-25T11:41:45.616Z,7.42
2022-11-25T11:47:02.477Z,7.60
2022-11-25T11:52:12.482Z,7.54
2022-11-25T11:57:29.129Z,7.34
2022-11-25T12:02:41.787Z,7.25
2022-11-25T12:07:53.192Z,7.29
2022-11-25T12:13:07.381Z,7.31
2022-11-25T12:18:21.854Z,7.36
2022-11-25T12:23:30.355Z,7.30
2022-11-25T12:28:41.353Z,7.31
2022-11-25T12:33:53.492Z,7.31
2022-11-25T12:39:02.902Z,7.57
2022-11-25T12:44:14.224Z,7.46
2022-11-25T12:49:22.665Z,7.64
2022-11-25T12:54:38.055Z,7.66
2022-11-25T13:00:25.416Z,7.77
2022-11-25T13:05:43.334Z,7.62
2022-11-25T13:11:09.163Z,7.71
2022-11-25T13:16:14.738Z,7.66
2022-11-25T13:21:20.016Z,7.82
2022-11-25T13:26:53.024Z,7.71
2022-11-25T13:31:59.913Z,7.89
2022-11-25T13:37:24.087Z,7.86
2022-11-25T13:42:29.091Z,7.70
2022-11-25T13:47:36.326Z,7.77
2022-11-25T13:52:42.885Z,7.90
2022-11-25T13:57:49.879Z,7.93
2022-11-25T14:02:52.872Z,7.76
2022-11-25T14:08:10.305Z,7.57
2022-11-25T14:13:42.483Z,7.54
2022-11-25T14:19:35.065Z,6.95
2022-11-25T14:24:35.320Z,7.13
2022-11-25T14:29:42.966Z,7.29
2022-11-25T14:34:49.790Z,7.18
2022-11-25T14:39:59.012Z,7.01
2022-11-25T14:45:03.403Z,7.05
2022-11-25T14:55:38.220Z,6.86
2022-11-25T15:00:53.091Z,6.50
2022-11-25T15:05:58.224Z,6.24
2022-11-25T15:11:03.470Z,6.26
2022-11-25T15:16:13.520Z,6.26
2022-11-25T15:21:18.600Z,6.23
2022-11-25T15:26:23.618Z,6.15
2022-11-25T15:31:31.200Z,5.95
2022-11-25T15:36:34.577Z,6.00
2022-11-25T15:41:38.093Z,5.93
2022-11-25T15:46:42.668Z,5.99
2022-11-25T15:51:52.483Z,5.96
2022-11-25T15:56:59.112Z,5.94
2022-11-25T16:02:03.556Z,5.84
2022-11-25T16:07:23.404Z,5.81
2022-11-25T16:12:26.364Z,5.80
2022-11-25T16:17:31.667Z,5.71
2022-11-25T16:22:34.616Z,4.35
2022-11-25T16:27:38.626Z,4.80
2022-11-25T16:32:42.902Z,5.22
2022-11-25T16:37:49.101Z,5.35
2022-11-25T16:42:53.389Z,5.36
2022-11-25T16:47:57.669Z,5.28
2022-11-25T16:53:01.488Z,5.38
2022-11-25T16:58:10.137Z,5.44
2022-11-25T17:03:14.554Z,5.41
2022-11-25T17:08:17.568Z,5.27
2022-11-25T17:13:23.252Z,5.33
2022-11-25T17:18:27.809Z,5.33
2022-11-25T17:23:30.703Z,5.40
2022-11-25T17:28:33.740Z,5.30
2022-11-25T17:33:39.866Z,5.21
2022-11-25T17:38:42.782Z,5.08
2022-11-25T17:43:47.499Z,5.17
2022-11-25T17:48:51.933Z,5.14
2022-11-25T17:53:54.851Z,5.19
2022-11-25T17:59:07.373Z,5.10
2022-11-25T18:04:23.101Z,5.24
2022-11-25T18:09:26.032Z,5.22
2022-11-25T18:14:33.211Z,5.28
2022-11-25T18:19:37.546Z,4.88
2022-11-25T18:24:41.135Z,4.90
2022-11-25T18:29:44.423Z,4.84
2022-11-25T18:34:48.661Z,4.85
2022-11-25T18:39:51.622Z,4.82
2022-11-25T18:44:56.124Z,4.57
2022-11-25T18:50:00.497Z,4.86
2022-11-25T18:55:03.424Z,4.97
2022-11-25T19:00:31.078Z,4.88
2022-11-25T19:05:33.579Z,4.87
2022-11-25T19:10:38.654Z,5.08
2022-11-25T19:15:43.739Z,5.16
2022-11-25T19:20:48.030Z,5.21
2022-11-25T19:25:51.073Z,5.17
2022-11-25T19:30:58.958Z,5.14
2022-11-25T19:36:03.416Z,5.14
2022-11-25T19:41:06.538Z,5.27
2022-11-25T19:46:29.159Z,5.29
2022-11-25T19:51:35.846Z,5.33
2022-11-25T19:56:40.124Z,5.38
2022-11-25T20:01:45.441Z,5.40
2022-11-25T20:06:50.493Z,5.20
2022-11-25T20:11:58.575Z,5.32
2022-11-25T20:17:01.603Z,5.31
2022-11-25T20:22:06.041Z,5.35
2022-11-25T20:27:11.233Z,5.38
2022-11-25T20:32:21.048Z,5.35
2022-11-25T20:37:26.241Z,5.41
2022-11-25T20:42:29.136Z,5.39
2022-11-25T20:47:32.274Z,5.38
2022-11-25T20:52:38.766Z,5.43
2022-11-25T20:57:41.754Z,5.34
2022-11-25T21:02:44.709Z,5.41
2022-11-25T21:07:50.856Z,5.48
2022-11-25T21:12:54.862Z,5.42
2022-11-25T21:17:58.526Z,5.32
2022-11-25T21:23:06.573Z,5.63
2022-11-25T21:28:16.335Z,5.80
2022-11-25T21:33:19.375Z,5.68
2022-11-25T21:38:26.164Z,5.67
2022-11-25T21:43:33.091Z,5.58
2022-11-25T21:48:36.647Z,5.64
2022-11-25T21:53:41.598Z,5.55
2022-11-25T21:58:44.998Z,5.33
2022-11-25T22:03:47.931Z,5.39
2022-11-25T22:08:52.496Z,5.51
2022-11-25T22:13:55.475Z,5.64
2022-11-25T22:18:59.133Z,5.37
2022-11-25T22:24:06.784Z,5.23
2022-11-25T22:29:14.002Z,5.39
2022-11-25T22:34:19.385Z,5.35
2022-11-25T22:39:25.529Z,5.39
2022-11-25T22:44:33.672Z,5.23
2022-11-25T22:49:41.455Z,5.16
2022-11-25T22:54:45.717Z,5.08
2022-11-25T22:59:48.666Z,5.12
2022-11-25T23:04:53.639Z,5.19
2022-11-25T23:09:57.957Z,5.17
2022-11-25T23:15:00.885Z,5.17
2022-11-25T23:20:03.906Z,5.32
2022-11-25T23:25:14.806Z,5.19
2022-11-25T23:30:19.527Z,5.20
2022-11-25T23:35:28.692Z,5.10
2022-11-25T23:40:33.414Z,5.18
2022-11-25T23:45:36.363Z,5.13
2022-11-25T23:50:39.256Z,5.12
2022-11-25T23:55:43.691Z,5.09
